Time;durP1;ratioP1;P1;durP2;ratioP2;P2;SDS_P1;SDS_P2;PMS_P1;PMS_P2;Temp;Humidity;BMP_temperature;BMP_pressure;BME280_temperature;BME280_humidity;BME280_pressure;Samples;Min_cycle;Max_cycle;Signal;HPM_P1;HPM_P2
2022/10/11 00:01:23;;;;;;;4.13;2.55;;;;;;;;;;5096153;28;20505;-83
2022/10/11 00:03:49;;;;;;;2.75;1.92;;;;;;;;;;5107845;28;20066;-82
2022/10/11 00:06:14;;;;;;;4.93;2.10;;;;;;;;;;5095110;28;20068;-82
2022/10/11 00:08:40;;;;;;;2.10;1.85;;;;;;;;;;5111088;28;20034;-81
2022/10/11 00:11:06;;;;;;;3.03;2.28;;;;;;;;;;5093914;28;20047;-83
2022/10/11 00:13:32;;;;;;;4.28;2.88;;;;;;;;;;5092149;28;20043;-82
2022/10/11 00:15:57;;;;;;;2.20;2.00;;;;;;;;;;5091510;28;20042;-83
2022/10/11 00:18:24;;;;;;;3.03;2.60;;;;;;;;;;5109923;28;20027;-82
2022/10/11 00:20:49;;;;;;;2.08;1.88;;;;;;;;;;5090549;28;20031;-82
2022/10/11 00:23:15;;;;;;;2.63;2.42;;;;;;;;;;5093466;28;20076;-82
2022/10/11 00:25:40;;;;;;;5.53;3.17;;;;;;;;;;5094031;28;20383;-82
2022/10/11 00:28:06;;;;;;;3.47;2.72;;;;;;;;;;5112507;28;20038;-82
2022/10/11 00:30:32;;;;;;;5.63;2.70;;;;;;;;;;5093614;28;20043;-82
2022/10/11 00:32:58;;;;;;;3.30;1.80;;;;;;;;;;5110203;28;20023;-82
2022/10/11 00:35:24;;;;;;;5.00;2.72;;;;;;;;;;5092368;28;20696;-82
2022/10/11 00:37:49;;;;;;;7.13;3.70;;;;;;;;;;5091287;28;20379;-82
2022/10/11 00:40:18;;;;;;;3.70;2.22;;;;;;;;;;5109662;28;20084;-83
2022/10/11 00:42:45;;;;;;;2.95;2.65;;;;;;;;;;5095116;28;20065;-83
2022/10/11 00:45:25;;;;;;;5.38;2.92;;;;;;;;;;5093205;28;20514;-84
2022/10/11 00:47:59;;;;;;;2.90;2.38;;;;;;;;;;5092025;28;20467;-83
2022/10/11 00:50:28;;;;;;;3.08;1.95;;;;;;;;;;5092208;28;20027;-84
2022/10/11 00:52:58;;;;;;;4.47;2.95;;;;;;;;;;5094811;28;20398;-83
2022/10/11 00:55:27;;;;;;;3.45;2.55;;;;;;;;;;5109079;28;20045;-82
2022/10/11 00:57:56;;;;;;;6.55;3.03;;;;;;;;;;5107354;28;20049;-83
2022/10/11 01:00:22;;;;;;;2.08;1.77;;;;;;;;;;5112269;28;20361;-82
2022/10/11 01:02:48;;;;;;;3.88;2.50;;;;;;;;;;5110366;28;20026;-83
2022/10/11 01:05:16;;;;;;;7.00;3.00;;;;;;;;;;5090189;28;20048;-82
2022/10/11 01:07:43;;;;;;;2.80;2.08;;;;;;;;;;5107936;28;20045;-82
2022/10/11 01:10:09;;;;;;;5.30;3.47;;;;;;;;;;5092009;28;20066;-82
2022/10/11 01:12:36;;;;;;;3.72;2.85;;;;;;;;;;5111982;28;20059;-81
2022/10/11 01:15:15;;;;;;;3.45;2.85;;;;;;;;;;5094221;28;20371;-83
2022/10/11 01:18:37;;;;;;;3.30;2.20;;;;;;;;;;5093281;28;20028;-83
2022/10/11 01:21:32;;;;;;;2.70;1.35;;;;;;;;;;4992831;28;20030;-83
2022/10/11 01:24:16;;;;;;;4.63;2.47;;;;;;;;;;5107101;28;20048;-82
2022/10/11 01:26:50;;;;;;;4.03;2.78;;;;;;;;;;5092809;28;20475;-82
2022/10/11 01:29:46;;;;;;;2.83;2.30;;;;;;;;;;5093637;28;20043;-83
2022/10/11 01:32:21;;;;;;;5.20;2.92;;;;;;;;;;5086828;28;20027;-83
2022/10/11 01:34:58;;;;;;;4.57;2.53;;;;;;;;;;5110303;28;20383;-82
2022/10/11 01:37:41;;;;;;;4.95;2.78;;;;;;;;;;5090941;28;20027;-81
2022/10/11 01:40:09;;;;;;;3.13;2.38;;;;;;;;;;5092376;28;20023;-81
2022/10/11 01:42:37;;;;;;;5.78;2.65;;;;;;;;;;5089959;28;20027;-81
2022/10/11 01:45:04;;;;;;;4.10;2.78;;;;;;;;;;5109830;28;20027;-82
2022/10/11 01:47:29;;;;;;;2.40;2.17;;;;;;;;;;5108847;28;20584;-81
2022/10/11 01:49:58;;;;;;;3.85;1.90;;;;;;;;;;5111079;28;20028;-81
2022/10/11 01:52:27;;;;;;;3.85;2.47;;;;;;;;;;5112539;28;20023;-83
2022/10/11 01:55:00;;;;;;;2.90;1.98;;;;;;;;;;5092899;28;20034;-81
2022/10/11 01:57:42;;;;;;;2.00;1.70;;;;;;;;;;5112726;28;20375;-83
2022/10/11 02:00:23;;;;;;;3.63;1.67;;;;;;;;;;5088325;28;20156;-81
2022/10/11 02:03:16;;;;;;;4.13;2.88;;;;;;;;;;5088387;28;20027;-82
2022/10/11 02:05:48;;;;;;;3.42;2.30;;;;;;;;;;5110310;28;20023;-82
2022/10/11 02:08:50;;;;;;;3.45;2.63;;;;;;;;;;5109112;28;20015;-82
2022/10/11 02:11:26;;;;;;;2.28;2.08;;;;;;;;;;5085617;28;20058;-84
2022/10/11 02:14:07;;;;;;;2.85;2.42;;;;;;;;;;5111978;28;20023;-82
2022/10/11 02:16:39;;;;;;;4.15;3.08;;;;;;;;;;5106645;28;20100;-82
2022/10/11 02:19:06;;;;;;;3.10;2.03;;;;;;;;;;5092172;28;20023;-82
2022/10/11 02:21:35;;;;;;;2.58;1.95;;;;;;;;;;5109483;28;20110;-81
2022/10/11 02:24:12;;;;;;;4.38;2.47;;;;;;;;;;5091497;28;20044;-82
2022/10/11 02:26:42;;;;;;;2.45;2.25;;;;;;;;;;5092418;28;20028;-82
2022/10/11 02:29:10;;;;;;;2.75;2.17;;;;;;;;;;5109311;28;20036;-82
2022/10/11 02:31:36;;;;;;;4.88;3.17;;;;;;;;;;5109336;28;20528;-84
2022/10/11 02:34:16;;;;;;;3.92;2.35;;;;;;;;;;5108770;28;21801;-83
2022/10/11 02:36:45;;;;;;;4.78;3.45;;;;;;;;;;5111230;28;20490;-83
2022/10/11 02:39:15;;;;;;;5.05;2.33;;;;;;;;;;5091288;28;20387;-82
2022/10/11 02:41:42;;;;;;;3.80;2.47;;;;;;;;;;5109701;28;20046;-82
2022/10/11 02:44:42;;;;;;;4.28;2.75;;;;;;;;;;5105281;28;20035;-82
2022/10/11 02:47:08;;;;;;;2.50;1.85;;;;;;;;;;5082980;28;20036;-82
2022/10/11 02:49:34;;;;;;;4.07;2.75;;;;;;;;;;5111704;28;20078;-81
2022/10/11 02:52:03;;;;;;;4.55;2.67;;;;;;;;;;5092093;28;20029;-81
2022/10/11 02:54:28;;;;;;;3.65;2.85;;;;;;;;;;5111667;28;20023;-81
2022/10/11 02:56:54;;;;;;;3.10;2.22;;;;;;;;;;5111377;28;20080;-81
2022/10/11 02:59:19;;;;;;;3.30;2.38;;;;;;;;;;5092330;28;20563;-81
2022/10/11 03:01:45;;;;;;;2.90;2.58;;;;;;;;;;5094236;28;20024;-81
2022/10/11 03:04:10;;;;;;;5.40;4.72;;;;;;;;;;5091714;28;20028;-82
2022/10/11 03:06:36;;;;;;;5.35;2.83;;;;;;;;;;5090786;28;20084;-82
2022/10/11 03:09:01;;;;;;;4.97;3.72;;;;;;;;;;5091800;28;20031;-82
2022/10/11 03:11:26;;;;;;;5.50;2.95;;;;;;;;;;5111564;28;20016;-82
2022/10/11 03:13:52;;;;;;;4.13;3.08;;;;;;;;;;5093511;28;20093;-82
2022/10/11 03:16:17;;;;;;;4.68;3.53;;;;;;;;;;5111046;28;20015;-81
2022/10/11 03:18:43;;;;;;;4.03;2.45;;;;;;;;;;5088927;28;20031;-82
2022/10/11 03:21:08;;;;;;;3.15;2.17;;;;;;;;;;5108385;28;20024;-82
2022/10/11 03:23:34;;;;;;;4.13;2.75;;;;;;;;;;5112196;28;20491;-81
2022/10/11 03:25:59;;;;;;;3.75;2.92;;;;;;;;;;5095163;28;20039;-82
2022/10/11 03:28:25;;;;;;;5.70;3.38;;;;;;;;;;5113953;28;20031;-82
2022/10/11 03:30:51;;;;;;;2.75;2.22;;;;;;;;;;5113766;28;20066;-82
2022/10/11 03:33:17;;;;;;;3.80;2.70;;;;;;;;;;5097053;28;20023;-82
2022/10/11 03:35:47;;;;;;;3.90;2.83;;;;;;;;;;5095524;28;20019;-82
2022/10/11 03:38:16;;;;;;;2.95;2.50;;;;;;;;;;5091256;28;20073;-82
2022/10/11 03:40:42;;;;;;;3.55;2.78;;;;;;;;;;5115693;28;20023;-82
2022/10/11 03:43:08;;;;;;;1.95;1.80;;;;;;;;;;5115528;28;20111;-82
2022/10/11 03:45:34;;;;;;;2.30;1.83;;;;;;;;;;5113551;28;20127;-81
2022/10/11 03:48:00;;;;;;;2.80;2.25;;;;;;;;;;5097092;28;20084;-81
2022/10/11 03:50:25;;;;;;;3.00;2.53;;;;;;;;;;5095114;28;20020;-82
2022/10/11 03:52:51;;;;;;;4.63;3.28;;;;;;;;;;5111933;28;20030;-82
2022/10/11 03:55:16;;;;;;;3.70;2.90;;;;;;;;;;5091260;28;20032;-80
2022/10/11 03:57:42;;;;;;;7.22;3.50;;;;;;;;;;5112982;28;20019;-82
2022/10/11 04:00:07;;;;;;;5.18;3.58;;;;;;;;;;5113940;28;20475;-81
2022/10/11 04:02:33;;;;;;;3.53;2.88;;;;;;;;;;5110778;28;20031;-82
2022/10/11 04:04:58;;;;;;;3.13;2.72;;;;;;;;;;5113913;28;20111;-82
2022/10/11 04:07:24;;;;;;;5.25;2.72;;;;;;;;;;5095157;28;20114;-82
2022/10/11 04:09:50;;;;;;;3.50;2.28;;;;;;;;;;5093711;28;20027;-82
2022/10/11 04:12:16;;;;;;;4.47;3.17;;;;;;;;;;5092347;28;20420;-82
2022/10/11 04:14:41;;;;;;;3.92;2.83;;;;;;;;;;5111088;28;20074;-81
2022/10/11 04:17:07;;;;;;;3.28;2.80;;;;;;;;;;5113310;28;20042;-81
2022/10/11 04:19:32;;;;;;;4.53;3.05;;;;;;;;;;5112319;28;20027;-82
2022/10/11 04:21:58;;;;;;;3.95;2.75;;;;;;;;;;5111674;28;20037;-81
2022/10/11 04:24:23;;;;;;;4.55;2.55;;;;;;;;;;5112200;28;20046;-81
2022/10/11 04:26:48;;;;;;;5.03;3.25;;;;;;;;;;5111671;28;20079;-81
2022/10/11 04:29:14;;;;;;;6.45;4.15;;;;;;;;;;5090881;28;20028;-82
2022/10/11 04:31:39;;;;;;;6.05;3.95;;;;;;;;;;5108544;28;20028;-81
2022/10/11 04:34:05;;;;;;;4.15;3.33;;;;;;;;;;5091988;28;20032;-81
2022/10/11 04:36:32;;;;;;;7.30;4.32;;;;;;;;;;5111468;28;20081;-81
2022/10/11 04:39:00;;;;;;;13.82;3.05;;;;;;;;;;5088966;28;20038;-82
2022/10/11 04:41:26;;;;;;;4.35;3.47;;;;;;;;;;5091626;28;20037;-82
2022/10/11 04:43:52;;;;;;;3.60;2.90;;;;;;;;;;5090424;28;20412;-83
2022/10/11 04:46:17;;;;;;;5.90;3.53;;;;;;;;;;5093598;28;20133;-79
2022/10/11 04:48:42;;;;;;;5.70;3.30;;;;;;;;;;5095202;28;20110;-80
2022/10/11 04:51:08;;;;;;;2.53;2.28;;;;;;;;;;5094056;28;20023;-80
2022/10/11 04:53:33;;;;;;;6.05;3.25;;;;;;;;;;5112824;28;20114;-81
2022/10/11 04:56:04;;;;;;;2.80;2.25;;;;;;;;;;5112485;28;20031;-82
2022/10/11 04:58:31;;;;;;;3.70;2.50;;;;;;;;;;5089052;28;20020;-81
2022/10/11 05:00:56;;;;;;;4.47;3.20;;;;;;;;;;5094044;28;20023;-81
2022/10/11 05:03:22;;;;;;;5.28;3.65;;;;;;;;;;5091999;28;20130;-82
2022/10/11 05:05:48;;;;;;;4.00;3.53;;;;;;;;;;5108525;28;20449;-82
2022/10/11 05:08:13;;;;;;;6.05;3.90;;;;;;;;;;5109792;28;20066;-81
2022/10/11 05:10:39;;;;;;;4.70;2.80;;;;;;;;;;5107926;28;20027;-80
2022/10/11 05:13:05;;;;;;;16.30;3.28;;;;;;;;;;5093485;28;20437;-82
2022/10/11 05:15:31;;;;;;;4.13;3.17;;;;;;;;;;5093187;28;20031;-82
2022/10/11 05:17:56;;;;;;;6.80;4.05;;;;;;;;;;5091323;28;20019;-82
2022/10/11 05:20:22;;;;;;;4.13;3.28;;;;;;;;;;5092794;28;20032;-81
2022/10/11 05:22:47;;;;;;;4.95;3.28;;;;;;;;;;5108153;28;20028;-81
2022/10/11 05:25:13;;;;;;;3.38;2.72;;;;;;;;;;5087478;28;20032;-82
2022/10/11 05:27:38;;;;;;;2.80;2.05;;;;;;;;;;5091109;28;20035;-83
2022/10/11 05:30:04;;;;;;;4.40;3.38;;;;;;;;;;5110822;28;20031;-82
2022/10/11 05:32:30;;;;;;;5.32;3.90;;;;;;;;;;5112072;28;20023;-83
2022/10/11 05:34:55;;;;;;;3.83;2.53;;;;;;;;;;5108974;28;20915;-83
2022/10/11 05:37:21;;;;;;;6.60;3.92;;;;;;;;;;5093333;28;20036;-82
2022/10/11 05:39:46;;;;;;;6.10;3.83;;;;;;;;;;5108730;28;20032;-83
2022/10/11 05:42:12;;;;;;;7.03;3.47;;;;;;;;;;5110410;28;20015;-83
2022/10/11 05:44:37;;;;;;;6.18;4.70;;;;;;;;;;5106330;28;20479;-83
2022/10/11 05:47:03;;;;;;;5.35;3.28;;;;;;;;;;5090389;28;20070;-83
2022/10/11 05:49:29;;;;;;;4.45;3.65;;;;;;;;;;5112320;28;20023;-82
2022/10/11 05:51:54;;;;;;;4.07;3.03;;;;;;;;;;5093738;28;20055;-83
2022/10/11 05:54:20;;;;;;;3.10;2.58;;;;;;;;;;5091459;28;20096;-85
2022/10/11 05:56:46;;;;;;;4.72;3.40;;;;;;;;;;5091347;28;20051;-82
2022/10/11 05:59:11;;;;;;;7.47;4.30;;;;;;;;;;5090634;28;20027;-81
2022/10/11 06:01:37;;;;;;;5.88;3.30;;;;;;;;;;5086867;28;20099;-81
2022/10/11 06:04:03;;;;;;;6.50;3.28;;;;;;;;;;5112234;28;20019;-82
2022/10/11 06:06:29;;;;;;;4.93;2.92;;;;;;;;;;5108935;28;20019;-81
2022/10/11 06:08:54;;;;;;;5.57;3.40;;;;;;;;;;5090910;28;20027;-83
2022/10/11 06:11:24;;;;;;;3.80;2.75;;;;;;;;;;5089120;28;20128;-82
2022/10/11 06:13:51;;;;;;;4.65;3.40;;;;;;;;;;5106048;28;20025;-82
2022/10/11 06:16:16;;;;;;;6.28;3.22;;;;;;;;;;5106940;28;20023;-81
2022/10/11 06:18:42;;;;;;;5.15;3.88;;;;;;;;;;5092335;28;20432;-82
2022/10/11 06:21:07;;;;;;;22.45;13.82;;;;;;;;;;5112105;28;20033;-83
2022/10/11 06:23:33;;;;;;;33.05;21.30;;;;;;;;;;5091548;28;20491;-83
2022/10/11 06:26:01;;;;;;;13.27;8.35;;;;;;;;;;5092847;28;20134;-82
2022/10/11 06:28:27;;;;;;;7.75;3.17;;;;;;;;;;5109575;28;20031;-81
2022/10/11 06:30:54;;;;;;;11.07;3.30;;;;;;;;;;5091813;28;20114;-81
2022/10/11 06:33:20;;;;;;;9.18;4.00;;;;;;;;;;5088959;28;20031;-82
2022/10/11 06:35:46;;;;;;;4.13;2.70;;;;;;;;;;5105064;28;20166;-82
2022/10/11 06:38:11;;;;;;;6.93;4.30;;;;;;;;;;5107697;28;20058;-81
2022/10/11 06:40:37;;;;;;;3.15;2.53;;;;;;;;;;5086719;28;21888;-82
2022/10/11 06:43:02;;;;;;;4.10;3.08;;;;;;;;;;5108660;28;20020;-83
2022/10/11 06:45:28;;;;;;;7.18;2.55;;;;;;;;;;5107728;28;20386;-82
2022/10/11 06:47:53;;;;;;;3.33;2.50;;;;;;;;;;5105797;28;20027;-82
2022/10/11 06:50:18;;;;;;;3.95;2.17;;;;;;;;;;5087861;28;20027;-83
2022/10/11 06:52:45;;;;;;;5.28;3.55;;;;;;;;;;5090054;28;20055;-83
2022/10/11 06:55:11;;;;;;;6.85;2.75;;;;;;;;;;5091355;28;20435;-82
2022/10/11 06:57:36;;;;;;;5.93;3.17;;;;;;;;;;5113108;28;20055;-84
2022/10/11 07:00:03;;;;;;;4.05;2.45;;;;;;;;;;5088318;28;20107;-86
2022/10/11 07:02:28;;;;;;;4.13;2.78;;;;;;;;;;5091086;28;20049;-84
2022/10/11 07:04:54;;;;;;;4.35;3.28;;;;;;;;;;5114249;28;20027;-83
2022/10/11 07:07:22;;;;;;;7.30;3.58;;;;;;;;;;5113262;28;20460;-83
2022/10/11 07:09:47;;;;;;;5.72;3.58;;;;;;;;;;5110874;28;20034;-83
2022/10/11 07:12:12;;;;;;;5.75;3.13;;;;;;;;;;5112889;28;20023;-84
2022/10/11 07:14:38;;;;;;;4.22;2.97;;;;;;;;;;5093152;28;20108;-85
2022/10/11 07:17:03;;;;;;;6.65;2.65;;;;;;;;;;5094925;28;20019;-84
2022/10/11 07:19:29;;;;;;;5.50;2.78;;;;;;;;;;5091685;28;20030;-85
2022/10/11 07:22:03;;;;;;;8.15;2.92;;;;;;;;;;5105999;28;20023;-85
2022/10/11 07:24:28;;;;;;;5.60;2.97;;;;;;;;;;5093713;28;20503;-85
2022/10/11 07:26:54;;;;;;;5.38;3.30;;;;;;;;;;5092608;28;20070;-85
2022/10/11 07:29:19;;;;;;;8.63;4.10;;;;;;;;;;5109980;28;20026;-85
2022/10/11 07:31:47;;;;;;;4.97;3.00;;;;;;;;;;5089756;28;20081;-84
2022/10/11 07:34:12;;;;;;;10.55;2.72;;;;;;;;;;5106928;28;20080;-84
2022/10/11 07:36:38;;;;;;;4.22;2.47;;;;;;;;;;5090725;28;20472;-86
2022/10/11 07:39:05;;;;;;;3.25;2.03;;;;;;;;;;5085780;28;20028;-85
2022/10/11 07:41:31;;;;;;;2.63;2.05;;;;;;;;;;5091805;28;20023;-88
2022/10/11 07:43:56;;;;;;;4.40;2.47;;;;;;;;;;5109168;28;20068;-84
2022/10/11 07:46:22;;;;;;;5.82;1.98;;;;;;;;;;5092082;28;20031;-84
2022/10/11 07:48:49;;;;;;;5.70;2.47;;;;;;;;;;5107716;28;20425;-85
2022/10/11 07:51:19;;;;;;;3.40;2.60;;;;;;;;;;5111620;28;20051;-84
2022/10/11 07:53:54;;;;;;;6.65;3.03;;;;;;;;;;5106642;28;20055;-83
2022/10/11 07:56:22;;;;;;;4.15;2.55;;;;;;;;;;5110696;28;20095;-83
2022/10/11 07:58:53;;;;;;;4.10;2.85;;;;;;;;;;5108558;28;20418;-83
2022/10/11 08:01:19;;;;;;;3.10;2.30;;;;;;;;;;5092098;28;20176;-83
2022/10/11 08:03:49;;;;;;;3.17;2.63;;;;;;;;;;5109876;28;20094;-82
2022/10/11 08:06:17;;;;;;;3.55;2.85;;;;;;;;;;5090089;28;20028;-81
2022/10/11 08:08:43;;;;;;;4.75;3.13;;;;;;;;;;5110087;27;20054;-82
2022/10/11 08:11:08;;;;;;;3.47;2.28;;;;;;;;;;5110686;27;20467;-83
2022/10/11 08:13:34;;;;;;;6.60;3.17;;;;;;;;;;5110717;28;20072;-82
2022/10/11 08:16:00;;;;;;;4.60;2.92;;;;;;;;;;5110830;28;20028;-82
2022/10/11 08:18:25;;;;;;;4.80;2.78;;;;;;;;;;5111573;28;20574;-82
2022/10/11 08:20:51;;;;;;;5.15;2.88;;;;;;;;;;5107470;28;20103;-82
2022/10/11 08:23:17;;;;;;;7.07;3.47;;;;;;;;;;5111534;28;20071;-83
2022/10/11 08:25:46;;;;;;;5.75;3.30;;;;;;;;;;5094944;28;20028;-83
2022/10/11 08:28:15;;;;;;;10.65;3.83;;;;;;;;;;5092785;28;20043;-85
2022/10/11 08:30:52;;;;;;;5.93;3.50;;;;;;;;;;5110154;28;20020;-82
2022/10/11 08:33:18;;;;;;;6.10;2.88;;;;;;;;;;5090794;28;20040;-84
2022/10/11 08:35:44;;;;;;;4.30;3.17;;;;;;;;;;5112350;28;20022;-84
2022/10/11 08:38:10;;;;;;;1.70;1.55;;;;;;;;;;5095902;28;20023;-84
2022/10/11 08:40:36;;;;;;;5.65;2.65;;;;;;;;;;5091953;28;20110;-86
2022/10/11 08:43:12;;;;;;;7.20;3.00;;;;;;;;;;5112755;28;20023;-84
2022/10/11 08:45:44;;;;;;;3.47;2.70;;;;;;;;;;5093387;28;20097;-85
2022/10/11 08:48:40;;;;;;;4.80;2.83;;;;;;;;;;5112214;28;20468;-85
2022/10/11 08:51:32;;;;;;;3.88;2.75;;;;;;;;;;5087161;28;20503;-86
2022/10/11 08:54:22;;;;;;;5.40;3.20;;;;;;;;;;5111577;28;20544;-86
2022/10/11 08:56:48;;;;;;;4.35;2.80;;;;;;;;;;5097768;28;20032;-84
2022/10/11 08:59:29;;;;;;;7.00;3.08;;;;;;;;;;5097487;28;20102;-89
2022/10/11 09:02:14;;;;;;;4.57;2.58;;;;;;;;;;5114195;28;20035;-84
2022/10/11 09:04:40;;;;;;;4.55;1.95;;;;;;;;;;5093498;28;20040;-84
2022/10/11 09:07:20;;;;;;;5.18;3.08;;;;;;;;;;5114619;28;20027;-84
2022/10/11 09:10:08;;;;;;;4.40;3.05;;;;;;;;;;5088741;28;20085;-84
2022/10/11 09:12:49;;;;;;;5.57;2.40;;;;;;;;;;5107335;28;20039;-85
2022/10/11 09:15:46;;;;;;;4.35;2.78;;;;;;;;;;5097917;28;20571;-85
2022/10/11 09:18:33;;;;;;;3.90;2.58;;;;;;;;;;5078664;28;20035;-86
2022/10/11 09:21:27;;;;;;;4.57;2.58;;;;;;;;;;5114969;28;20042;-85
2022/10/11 09:24:21;;;;;;;4.05;2.90;;;;;;;;;;5110006;28;20110;-85
2022/10/11 09:27:22;;;;;;;4.15;2.08;;;;;;;;;;5109145;28;20043;-86
2022/10/11 09:29:51;;;;;;;3.50;1.92;;;;;;;;;;5105553;28;20114;-86
2022/10/11 09:32:24;;;;;;;4.95;2.55;;;;;;;;;;5112531;28;20024;-86
2022/10/11 09:35:17;;;;;;;5.80;2.47;;;;;;;;;;5114327;28;20035;-87
2022/10/11 09:38:03;;;;;;;3.80;2.90;;;;;;;;;;5105789;28;20565;-86
2022/10/11 09:40:37;;;;;;;3.50;2.63;;;;;;;;;;5111548;27;20475;-84
2022/10/11 09:43:02;;;;;;;5.53;3.03;;;;;;;;;;5094709;28;20026;-87
2022/10/11 09:45:28;;;;;;;4.63;3.63;;;;;;;;;;5092207;28;20019;-86
2022/10/11 09:47:56;;;;;;;3.80;2.97;;;;;;;;;;5095869;28;20451;-87
2022/10/11 09:50:25;;;;;;;4.55;3.05;;;;;;;;;;5110697;28;20020;-86
2022/10/11 09:52:55;;;;;;;3.55;2.58;;;;;;;;;;5096330;28;20027;-87
2022/10/11 09:55:39;;;;;;;5.68;2.58;;;;;;;;;;5096444;28;20016;-86
2022/10/11 09:58:25;;;;;;;5.18;3.13;;;;;;;;;;5114233;27;20020;-86
2022/10/11 10:01:23;;;;;;;6.55;3.15;;;;;;;;;;5112576;28;20028;-87
2022/10/11 10:04:05;;;;;;;5.90;2.75;;;;;;;;;;5062729;28;20486;-86
2022/10/11 10:06:30;;;;;;;3.80;2.63;;;;;;;;;;5095423;28;20019;-86
2022/10/11 10:09:29;;;;;;;5.18;2.83;;;;;;;;;;5096007;28;20042;-86
2022/10/11 10:11:56;;;;;;;9.82;2.55;;;;;;;;;;5113605;28;20093;-87
2022/10/11 10:14:27;;;;;;;4.38;2.58;;;;;;;;;;5115931;28;20024;-88
2022/10/11 10:17:05;;;;;;;3.97;2.97;;;;;;;;;;5114147;28;20016;-86
2022/10/11 10:19:40;;;;;;;6.00;3.17;;;;;;;;;;5094599;28;20040;-87
2022/10/11 10:22:16;;;;;;;4.53;2.70;;;;;;;;;;5095085;28;20031;-86
2022/10/11 10:24:42;;;;;;;4.07;2.53;;;;;;;;;;5113839;28;20043;-87
2022/10/11 10:27:19;;;;;;;5.13;2.40;;;;;;;;;;5095490;28;20386;-87
2022/10/11 10:30:21;;;;;;;5.10;2.90;;;;;;;;;;5090206;28;20445;-87
2022/10/11 10:33:02;;;;;;;5.20;3.05;;;;;;;;;;5010853;28;20037;-86
2022/10/11 10:35:36;;;;;;;7.88;4.18;;;;;;;;;;5105125;28;20028;-86
2022/10/11 10:38:17;;;;;;;5.70;3.30;;;;;;;;;;5095148;28;20019;-87
2022/10/11 10:40:48;;;;;;;3.42;2.58;;;;;;;;;;5094760;28;20407;-86
2022/10/11 10:43:16;;;;;;;4.78;2.92;;;;;;;;;;5114178;28;20028;-86
2022/10/11 10:46:15;;;;;;;5.53;2.63;;;;;;;;;;5093457;28;20038;-88
2022/10/11 10:48:46;;;;;;;4.63;2.55;;;;;;;;;;5093951;28;20487;-85
2022/10/11 10:51:28;;;;;;;6.63;3.55;;;;;;;;;;5093367;28;20033;-86
2022/10/11 10:54:04;;;;;;;5.15;3.10;;;;;;;;;;5092722;28;20081;-88
2022/10/11 10:56:38;;;;;;;5.80;3.40;;;;;;;;;;5109040;28;20130;-85
2022/10/11 10:59:19;;;;;;;5.10;3.40;;;;;;;;;;5094292;28;20027;-85
2022/10/11 11:02:07;;;;;;;5.95;3.75;;;;;;;;;;5094424;28;20572;-85
2022/10/11 11:04:35;;;;;;;4.65;3.03;;;;;;;;;;5111761;28;20028;-87
2022/10/11 11:07:34;;;;;;;5.57;3.03;;;;;;;;;;5092488;28;20023;-85
2022/10/11 11:10:11;;;;;;;4.13;2.53;;;;;;;;;;5093412;28;20020;-86
2022/10/11 11:12:39;;;;;;;7.35;3.50;;;;;;;;;;5092099;28;20040;-86
2022/10/11 11:15:23;;;;;;;8.02;3.33;;;;;;;;;;5094818;28;20168;-87
2022/10/11 11:17:55;;;;;;;4.28;2.38;;;;;;;;;;5091922;28;20076;-87
2022/10/11 11:20:38;;;;;;;5.25;2.75;;;;;;;;;;5092303;28;20548;-86
2022/10/11 11:23:26;;;;;;;7.93;3.33;;;;;;;;;;5090110;28;20028;-87
2022/10/11 11:26:37;;;;;;;4.50;2.92;;;;;;;;;;5076130;28;20035;-87
2022/10/11 11:29:16;;;;;;;5.55;3.38;;;;;;;;;;5068964;28;20394;-85
2022/10/11 11:32:06;;;;;;;4.30;2.72;;;;;;;;;;5092897;28;20932;-86
2022/10/11 11:34:37;;;;;;;7.35;2.92;;;;;;;;;;5092180;28;20044;-86
2022/10/11 11:37:27;;;;;;;4.97;3.25;;;;;;;;;;5109654;28;20471;-87
2022/10/11 11:40:04;;;;;;;4.50;3.00;;;;;;;;;;5090297;28;20154;-86
2022/10/11 11:42:34;;;;;;;4.35;2.70;;;;;;;;;;5089751;28;20020;-87
2022/10/11 11:45:16;;;;;;;4.88;2.55;;;;;;;;;;5112132;28;20389;-86
2022/10/11 11:47:46;;;;;;;6.10;3.40;;;;;;;;;;5113927;28;20024;-86
2022/10/11 11:50:13;;;;;;;;;;;;;;;;;;5115392;28;20028;-86
2022/10/11 11:52:43;;;;;;;6.03;3.15;;;;;;;;;;5097000;28;19981;-87
2022/10/11 11:55:20;;;;;;;5.13;2.83;;;;;;;;;;5096173;28;20023;-86
2022/10/11 11:57:55;;;;;;;3.60;2.58;;;;;;;;;;5096745;28;20072;-86
2022/10/11 12:00:25;;;;;;;4.07;2.97;;;;;;;;;;5093578;28;20126;-86
2022/10/11 12:02:55;;;;;;;6.03;2.75;;;;;;;;;;5111038;28;20463;-86
2022/10/11 12:05:34;;;;;;;7.30;3.22;;;;;;;;;;5112209;28;20023;-85
2022/10/11 12:08:02;;;;;;;5.18;3.30;;;;;;;;;;5096126;28;20031;-86
2022/10/11 12:10:53;;;;;;;7.00;3.35;;;;;;;;;;5112366;28;20035;-85
2022/10/11 12:13:20;;;;;;;4.78;2.63;;;;;;;;;;5114438;28;21025;-85
2022/10/11 12:16:11;;;;;;;7.13;3.25;;;;;;;;;;5114789;28;20501;-85
2022/10/11 12:18:55;;;;;;;4.20;3.25;;;;;;;;;;5112660;28;20502;-85
2022/10/11 12:21:36;;;;;;;5.13;3.33;;;;;;;;;;5112208;28;20016;-85
2022/10/11 12:24:19;;;;;;;2.83;2.13;;;;;;;;;;5109330;28;20043;-86
2022/10/11 12:26:53;;;;;;;4.88;2.95;;;;;;;;;;5093089;28;20028;-86
2022/10/11 12:29:41;;;;;;;5.95;3.53;;;;;;;;;;5092363;28;20458;-84
2022/10/11 12:32:07;;;;;;;4.00;2.85;;;;;;;;;;5109936;28;20421;-84
2022/10/11 12:34:40;;;;;;;5.13;3.08;;;;;;;;;;5095151;28;20023;-85
2022/10/11 12:37:18;;;;;;;6.38;4.07;;;;;;;;;;5093305;28;20068;-86
2022/10/11 12:39:51;;;;;;;5.65;3.35;;;;;;;;;;5114126;28;20498;-86
2022/10/11 12:42:23;;;;;;;6.57;2.58;;;;;;;;;;5111497;28;20034;-85
2022/10/11 12:45:11;;;;;;;5.15;3.42;;;;;;;;;;5088935;28;20076;-83
2022/10/11 12:48:05;;;;;;;6.03;3.20;;;;;;;;;;5078993;28;20044;-87
2022/10/11 12:50:59;;;;;;;5.05;3.38;;;;;;;;;;5112849;28;20248;-85
2022/10/11 12:53:31;;;;;;;5.13;2.97;;;;;;;;;;5093842;28;20031;-85
2022/10/11 12:56:19;;;;;;;3.13;2.47;;;;;;;;;;5092846;28;20020;-85
2022/10/11 12:58:46;;;;;;;4.38;2.25;;;;;;;;;;5111661;28;20098;-85
2022/10/11 13:01:25;;;;;;;3.55;2.38;;;;;;;;;;5112009;28;20027;-85
2022/10/11 13:03:59;;;;;;;5.60;3.05;;;;;;;;;;5110633;28;20028;-87
2022/10/11 13:06:32;;;;;;;4.32;2.92;;;;;;;;;;5107726;28;20525;-86
2022/10/11 13:09:27;;;;;;;5.47;3.30;;;;;;;;;;5110735;28;20073;-85
2022/10/11 13:11:55;;;;;;;3.70;2.22;;;;;;;;;;5113047;28;20019;-84
2022/10/11 13:14:23;;;;;;;5.97;2.83;;;;;;;;;;5111595;28;20106;-84
2022/10/11 13:17:18;;;;;;;3.22;2.38;;;;;;;;;;5111179;28;20020;-85
2022/10/11 13:19:43;;;;;;;4.95;2.65;;;;;;;;;;5094278;28;20120;-85
2022/10/11 13:22:17;;;;;;;5.13;3.22;;;;;;;;;;5111962;28;20069;-86
2022/10/11 13:24:43;;;;;;;5.30;3.58;;;;;;;;;;5111897;28;20395;-85
2022/10/11 13:27:18;;;;;;;5.35;3.58;;;;;;;;;;5094961;28;20024;-87
2022/10/11 13:29:44;;;;;;;6.13;3.20;;;;;;;;;;5093570;28;20028;-86
2022/10/11 13:32:15;;;;;;;4.75;2.92;;;;;;;;;;5106549;28;20028;-87
2022/10/11 13:34:51;;;;;;;5.28;3.33;;;;;;;;;;5112837;28;20425;-87
2022/10/11 13:37:22;;;;;;;4.63;3.20;;;;;;;;;;5095097;28;20023;-86
2022/10/11 13:39:50;;;;;;;5.45;3.65;;;;;;;;;;5108830;28;20028;-86
2022/10/11 13:42:18;;;;;;;5.78;2.92;;;;;;;;;;5092976;28;20046;-84
2022/10/11 13:44:45;;;;;;;3.45;2.53;;;;;;;;;;5095785;28;20463;-85
2022/10/11 13:47:13;;;;;;;5.32;3.45;;;;;;;;;;5094735;28;20035;-84
2022/10/11 13:49:49;;;;;;;4.80;2.65;;;;;;;;;;5095214;28;20387;-85
2022/10/11 13:52:20;;;;;;;4.80;3.40;;;;;;;;;;5094113;28;20032;-84
2022/10/11 13:54:52;;;;;;;13.57;3.67;;;;;;;;;;5110029;28;20024;-84
2022/10/11 13:57:18;;;;;;;7.88;3.95;;;;;;;;;;5112675;28;20032;-84
2022/10/11 13:59:43;;;;;;;9.60;4.72;;;;;;;;;;5112715;28;20055;-83
2022/10/11 14:02:20;;;;;;;8.90;5.25;;;;;;;;;;5094427;28;20471;-83
2022/10/11 14:04:47;;;;;;;5.75;3.65;;;;;;;;;;5092284;28;20110;-84
2022/10/11 14:07:26;;;;;;;6.18;3.92;;;;;;;;;;5108260;28;20085;-81
2022/10/11 14:09:52;;;;;;;9.17;4.97;;;;;;;;;;5108014;28;20085;-84
2022/10/11 14:12:29;;;;;;;5.50;3.38;;;;;;;;;;5111122;28;20271;-83
2022/10/11 14:14:56;;;;;;;6.40;2.75;;;;;;;;;;5091218;28;20030;-82
2022/10/11 14:17:41;;;;;;;7.97;4.07;;;;;;;;;;5107182;28;20019;-83
2022/10/11 14:20:10;;;;;;;6.03;3.80;;;;;;;;;;5094260;28;20043;-83
2022/10/11 14:22:35;;;;;;;8.57;3.72;;;;;;;;;;5108759;28;20387;-82
2022/10/11 14:25:01;;;;;;;5.40;3.45;;;;;;;;;;5104598;28;20044;-83
2022/10/11 14:27:27;;;;;;;5.10;3.22;;;;;;;;;;5109806;28;20024;-83
2022/10/11 14:29:53;;;;;;;7.10;3.67;;;;;;;;;;5109286;28;20060;-81
2022/10/11 14:32:28;;;;;;;5.78;3.55;;;;;;;;;;5108284;28;20114;-82
2022/10/11 14:34:54;;;;;;;4.60;2.70;;;;;;;;;;5091871;28;20129;-82
2022/10/11 14:37:20;;;;;;;5.50;3.83;;;;;;;;;;5111434;28;20032;-82
2022/10/11 14:39:46;;;;;;;5.07;3.20;;;;;;;;;;5089777;28;20017;-83
2022/10/11 14:42:12;;;;;;;7.13;3.97;;;;;;;;;;5111476;28;20027;-83
2022/10/11 14:44:38;;;;;;;4.68;3.60;;;;;;;;;;5109010;28;20028;-84
2022/10/11 14:47:06;;;;;;;5.40;3.53;;;;;;;;;;5090748;28;20520;-82
2022/10/11 14:49:36;;;;;;;4.85;2.88;;;;;;;;;;5089529;28;20483;-83
2022/10/11 14:52:03;;;;;;;5.07;3.33;;;;;;;;;;5108015;28;20026;-82
2022/10/11 14:54:30;;;;;;;5.03;3.58;;;;;;;;;;5086686;28;20466;-85
2022/10/11 14:56:58;;;;;;;8.13;3.88;;;;;;;;;;5088605;28;20111;-84
2022/10/11 14:59:27;;;;;;;4.47;2.55;;;;;;;;;;5109817;28;20035;-84
2022/10/11 15:01:53;;;;;;;3.72;2.22;;;;;;;;;;5090762;28;20028;-83
2022/10/11 15:04:24;;;;;;;4.05;2.35;;;;;;;;;;5108597;28;20025;-82
2022/10/11 15:06:51;;;;;;;6.15;3.30;;;;;;;;;;5091001;28;20019;-83
2022/10/11 15:09:19;;;;;;;5.90;2.75;;;;;;;;;;5109948;28;20479;-84